createdAt,value
2017-12-11T00:02:24.207Z,100.00
2017-12-11T00:04:51.671Z,100.00
2017-12-11T00:07:19.737Z,100.00
2017-12-11T00:09:47.189Z,100.00
2017-12-11T00:12:14.642Z,100.00
2017-12-11T00:14:42.409Z,100.00
2017-12-11T00:17:09.877Z,100.00
2017-12-11T00:19:37.337Z,100.00
2017-12-11T00:22:05.108Z,100.00
2017-12-11T00:24:32.570Z,100.00
2017-12-11T00:27:00.029Z,100.00
2017-12-11T00:29:27.701Z,100.00
2017-12-11T00:31:55.172Z,100.00
2017-12-11T00:34:22.626Z,100.00
2017-12-11T00:36:50.338Z,100.00
2017-12-11T00:39:17.799Z,100.00
2017-12-11T00:41:45.254Z,100.00
2017-12-11T00:44:13.164Z,100.00
2017-12-11T00:46:40.614Z,100.00
2017-12-11T00:49:08.069Z,100.00
2017-12-11T00:51:35.849Z,100.00
2017-12-11T00:54:03.296Z,100.00
2017-12-11T00:56:30.752Z,100.00
2017-12-11T00:58:59.161Z,100.00
2017-12-11T01:01:26.615Z,100.00
2017-12-11T01:03:54.086Z,100.00
2017-12-11T01:06:21.837Z,100.00
2017-12-11T01:08:49.297Z,100.00
2017-12-11T01:11:16.757Z,100.00
2017-12-11T01:13:44.525Z,100.00
2017-12-11T01:16:11.981Z,100.00
2017-12-11T01:18:39.449Z,100.00
2017-12-11T01:21:09.044Z,100.00
2017-12-11T01:23:36.496Z,100.00
2017-12-11T01:26:03.979Z,100.00
2017-12-11T01:28:31.734Z,100.00
2017-12-11T01:30:59.202Z,100.00
2017-12-11T01:33:26.661Z,100.00
2017-12-11T01:35:54.417Z,100.00
2017-12-11T01:38:21.873Z,100.00
2017-12-11T01:40:49.325Z,100.00
2017-12-11T01:43:17.414Z,100.00
2017-12-11T01:45:44.863Z,100.00
2017-12-11T01:48:12.323Z,100.00
2017-12-11T01:50:40.100Z,100.00
2017-12-11T01:53:07.568Z,100.00
2017-12-11T01:55:35.034Z,100.00
2017-12-11T01:58:02.785Z,100.00
2017-12-11T02:00:31.873Z,100.00
2017-12-11T02:02:59.333Z,100.00
2017-12-11T02:05:27.009Z,100.00
2017-12-11T02:07:54.465Z,100.00
2017-12-11T02:10:21.916Z,100.00
2017-12-11T02:12:49.706Z,100.00
2017-12-11T02:15:17.157Z,100.00
2017-12-11T02:17:44.618Z,100.00
2017-12-11T02:20:12.385Z,100.00
2017-12-11T02:22:39.847Z,100.00
2017-12-11T02:25:07.317Z,100.00
2017-12-11T02:27:35.385Z,100.00
2017-12-11T02:30:02.851Z,100.00
2017-12-11T02:32:30.317Z,100.00
2017-12-11T02:34:58.076Z,100.00
2017-12-11T02:37:25.543Z,100.00
2017-12-11T02:39:53.009Z,100.00
2017-12-11T02:42:20.614Z,100.00
2017-12-11T02:44:48.078Z,100.00
2017-12-11T02:47:15.532Z,100.00
2017-12-11T02:49:43.441Z,100.00
2017-12-11T02:52:10.893Z,100.00
2017-12-11T02:54:38.353Z,100.00
2017-12-11T02:57:06.134Z,100.00
2017-12-11T02:59:33.601Z,100.00
2017-12-11T03:02:02.665Z,100.00
2017-12-11T03:04:30.673Z,100.00
2017-12-11T03:06:58.129Z,100.00
2017-12-11T03:09:25.594Z,100.00
2017-12-11T03:11:53.345Z,100.00
2017-12-11T03:14:20.808Z,100.00
2017-12-11T03:16:48.264Z,100.00
2017-12-11T03:19:16.348Z,100.00
2017-12-11T03:21:43.814Z,100.00
2017-12-11T03:24:11.268Z,100.00
2017-12-11T03:26:39.289Z,100.00
2017-12-11T03:29:06.748Z,100.00
2017-12-11T03:31:34.206Z,100.00
2017-12-11T03:34:01.977Z,100.00
2017-12-11T03:36:29.433Z,100.00
2017-12-11T03:38:56.903Z,100.00
2017-12-11T03:41:24.720Z,100.00
2017-12-11T03:43:52.182Z,100.00
2017-12-11T03:46:19.648Z,100.00
2017-12-11T03:48:47.390Z,100.00
2017-12-11T03:51:14.846Z,100.00
2017-12-11T03:53:42.313Z,100.00
2017-12-11T03:56:10.145Z,100.00
2017-12-11T03:58:37.603Z,100.00
2017-12-11T04:01:06.157Z,100.00
2017-12-11T04:03:34.876Z,100.00
2017-12-11T04:06:02.338Z,100.00
2017-12-11T04:08:29.793Z,100.00
2017-12-11T04:10:57.612Z,100.00
2017-12-11T04:13:25.073Z,100.00
2017-12-11T04:15:52.536Z,100.00
2017-12-11T04:18:20.302Z,100.00
2017-12-11T04:20:47.766Z,100.00
2017-12-11T04:23:15.220Z,100.00
2017-12-11T04:25:42.978Z,100.00
2017-12-11T04:28:10.433Z,100.00
2017-12-11T04:30:37.880Z,100.00
2017-12-11T04:33:05.473Z,100.00
2017-12-11T04:35:32.948Z,100.00
2017-12-11T04:38:00.406Z,100.00
2017-12-11T04:40:28.346Z,100.00
2017-12-11T04:42:55.799Z,100.00
2017-12-11T04:45:23.259Z,100.00
2017-12-11T04:47:50.993Z,100.00
2017-12-11T04:50:18.448Z,100.00
2017-12-11T04:52:45.905Z,100.00
2017-12-11T04:55:13.497Z,100.00
2017-12-11T04:57:40.959Z,100.00
2017-12-11T05:00:08.421Z,100.00
2017-12-11T05:02:36.298Z,100.00
2017-12-11T05:05:03.756Z,100.00
2017-12-11T05:07:31.214Z,100.00
2017-12-11T05:09:59.104Z,100.00
2017-12-11T05:12:26.566Z,100.00
2017-12-11T05:14:54.036Z,100.00
2017-12-11T05:17:21.625Z,100.00
2017-12-11T05:19:49.085Z,100.00
2017-12-11T05:22:16.545Z,100.00
2017-12-11T05:24:44.488Z,100.00
2017-12-11T05:27:12.018Z,100.00
2017-12-11T05:29:39.482Z,100.00
2017-12-11T05:32:07.198Z,100.00
2017-12-11T05:34:34.670Z,100.00
2017-12-11T05:37:02.128Z,100.00
2017-12-11T05:39:30.160Z,100.00
2017-12-11T05:41:57.630Z,100.00
2017-12-11T05:44:25.093Z,100.00
2017-12-11T05:46:52.801Z,100.00
2017-12-11T05:49:20.260Z,100.00
2017-12-11T05:51:47.719Z,100.00
2017-12-11T05:54:15.581Z,100.00
2017-12-11T05:56:43.055Z,100.00
2017-12-11T05:59:10.509Z,100.00
2017-12-11T06:01:38.230Z,100.00
2017-12-11T06:04:05.689Z,100.00
2017-12-11T06:06:34.141Z,100.00
2017-12-11T06:09:02.194Z,100.00
2017-12-11T06:11:29.652Z,100.00
2017-12-11T06:13:57.113Z,100.00
2017-12-11T06:16:24.825Z,100.00
2017-12-11T06:18:52.292Z,100.00
2017-12-11T06:21:19.767Z,100.00
2017-12-11T06:23:47.520Z,100.00
2017-12-11T06:26:14.986Z,100.00
2017-12-11T06:28:42.451Z,100.00
2017-12-11T06:31:10.193Z,100.00
2017-12-11T06:33:37.657Z,100.00
2017-12-11T06:36:05.113Z,100.00
2017-12-11T06:38:34.726Z,100.00
2017-12-11T06:41:02.188Z,100.00
2017-12-11T06:43:29.678Z,100.00
2017-12-11T06:45:57.420Z,100.00
2017-12-11T06:48:24.885Z,100.00
2017-12-11T06:50:52.349Z,100.00
2017-12-11T06:53:20.095Z,100.00
2017-12-11T06:55:47.560Z,100.00
2017-12-11T06:58:15.022Z,100.00
2017-12-11T07:00:43.101Z,100.00
2017-12-11T07:03:10.580Z,100.00
2017-12-11T07:05:38.040Z,100.00
2017-12-11T07:08:07.320Z,100.00
2017-12-11T07:10:34.785Z,100.00
2017-12-11T07:13:02.247Z,100.00
2017-12-11T07:15:30.006Z,100.00
2017-12-11T07:17:57.473Z,100.00
2017-12-11T07:20:24.928Z,100.00
2017-12-11T07:22:52.684Z,100.00
2017-12-11T07:25:20.146Z,100.00
2017-12-11T07:27:47.613Z,100.00
2017-12-11T07:30:15.681Z,100.00
2017-12-11T07:32:43.153Z,100.00
2017-12-11T07:35:10.610Z,100.00
2017-12-11T07:37:38.666Z,100.00
2017-12-11T07:40:06.123Z,100.00
2017-12-11T07:42:33.666Z,100.00
2017-12-11T07:45:01.363Z,100.00
2017-12-11T07:47:28.813Z,100.00
2017-12-11T07:49:56.280Z,100.00
2017-12-11T07:52:24.055Z,100.00
2017-12-11T07:54:51.522Z,100.00
2017-12-11T07:57:18.982Z,100.00
2017-12-11T07:59:46.741Z,100.00
2017-12-11T08:02:14.201Z,100.00
2017-12-11T08:04:41.661Z,100.00
2017-12-11T08:07:09.436Z,100.00
2017-12-11T08:09:38.183Z,100.00
2017-12-11T08:12:05.638Z,100.00
2017-12-11T08:14:33.648Z,100.00
2017-12-11T08:17:01.101Z,100.00
2017-12-11T08:19:28.559Z,100.00
2017-12-11T08:21:56.342Z,100.00
2017-12-11T08:24:23.810Z,100.00
2017-12-11T08:26:51.265Z,100.00
2017-12-11T08:29:19.026Z,100.00
2017-12-11T08:31:46.489Z,100.00
2017-12-11T08:34:13.952Z,100.00
2017-12-11T08:36:42.628Z,100.00
2017-12-11T08:39:10.087Z,100.00
2017-12-11T08:41:37.542Z,100.00
2017-12-11T08:44:05.312Z,100.00
2017-12-11T08:46:32.777Z,100.00
2017-12-11T08:49:00.234Z,100.00
2017-12-11T08:51:28.014Z,100.00
2017-12-11T08:53:55.472Z,100.00
2017-12-11T08:56:23.211Z,100.00
2017-12-11T08:58:51.077Z,100.00
2017-12-11T09:01:18.541Z,100.00
2017-12-11T09:03:45.998Z,100.00
2017-12-11T09:06:13.998Z,100.00
2017-12-11T09:08:41.455Z,100.00
2017-12-11T09:11:09.286Z,100.00
2017-12-11T09:13:37.304Z,100.00
2017-12-11T09:16:04.759Z,100.00
2017-12-11T09:18:32.221Z,100.00
2017-12-11T09:21:00.243Z,100.00
2017-12-11T09:23:27.704Z,100.00
2017-12-11T09:25:55.172Z,100.00
2017-12-11T09:28:22.978Z,100.00
2017-12-11T09:30:50.456Z,100.00
2017-12-11T09:33:17.918Z,100.00
2017-12-11T09:35:45.655Z,100.00
2017-12-11T09:38:13.111Z,100.00
2017-12-11T09:40:40.563Z,100.00
2017-12-11T09:43:08.350Z,100.00
2017-12-11T09:45:35.801Z,100.00
2017-12-11T09:48:03.244Z,99.79
2017-12-11T09:50:31.038Z,100.00
2017-12-11T09:52:58.490Z,100.00
2017-12-11T09:55:25.941Z,100.00
2017-12-11T09:57:53.725Z,100.00
2017-12-11T10:00:21.186Z,100.00
2017-12-11T10:02:48.645Z,100.00
2017-12-11T10:05:16.415Z,100.00
2017-12-11T10:07:43.882Z,100.00
2017-12-11T10:10:11.335Z,99.77
2017-12-11T10:12:40.629Z,100.00
2017-12-11T10:15:08.080Z,99.52
2017-12-11T10:17:35.534Z,100.00
2017-12-11T10:20:03.316Z,98.37
2017-12-11T10:22:30.770Z,99.66
2017-12-11T10:24:58.250Z,99.08
2017-12-11T10:27:26.310Z,98.19
2017-12-11T10:29:53.754Z,99.49
2017-12-11T10:32:21.210Z,97.07
2017-12-11T10:34:48.997Z,99.59
2017-12-11T10:37:16.440Z,99.97
2017-12-11T10:39:43.881Z,98.41
2017-12-11T10:42:11.518Z,98.12
2017-12-11T10:44:38.954Z,96.91
2017-12-11T10:47:06.406Z,99.91
2017-12-11T10:49:34.066Z,99.39
2017-12-11T10:52:01.517Z,100.00
2017-12-11T10:54:28.969Z,99.42
2017-12-11T10:56:57.071Z,100.00
2017-12-11T10:59:24.529Z,100.00
2017-12-11T11:01:51.982Z,100.00
2017-12-11T11:04:19.749Z,100.00
2017-12-11T11:06:47.203Z,100.00
2017-12-11T11:09:14.653Z,100.00
2017-12-11T11:11:42.452Z,100.00
2017-12-11T11:14:09.910Z,100.00
2017-12-11T11:16:37.372Z,100.00
2017-12-11T11:19:05.421Z,100.00
2017-12-11T11:21:32.873Z,100.00
2017-12-11T11:24:00.324Z,100.00
2017-12-11T11:26:28.373Z,100.00
2017-12-11T11:28:55.839Z,100.00
2017-12-11T11:31:23.301Z,99.83
2017-12-11T11:33:51.002Z,98.99
2017-12-11T11:36:18.450Z,99.41
2017-12-11T11:38:45.892Z,98.31
2017-12-11T11:41:13.809Z,97.73
2017-12-11T11:43:41.269Z,98.72
2017-12-11T11:46:08.731Z,97.07
2017-12-11T11:48:36.790Z,95.64
2017-12-11T11:51:04.243Z,96.94
2017-12-11T11:53:31.694Z,96.85
2017-12-11T11:55:59.462Z,94.35
2017-12-11T11:58:26.916Z,93.56
2017-12-11T12:00:54.370Z,91.85
2017-12-11T12:03:22.461Z,93.53
2017-12-11T12:05:49.914Z,92.20
2017-12-11T12:08:17.372Z,92.85
2017-12-11T12:10:45.179Z,92.20
2017-12-11T12:13:12.631Z,92.16
2017-12-11T12:15:40.467Z,89.95
2017-12-11T12:18:08.157Z,97.29
2017-12-11T12:20:35.616Z,91.97
2017-12-11T12:23:03.077Z,90.80
2017-12-11T12:25:31.135Z,91.79
2017-12-11T12:27:58.585Z,93.72
2017-12-11T12:30:26.136Z,91.33
2017-12-11T12:32:53.853Z,90.66
2017-12-11T12:35:21.301Z,91.27
2017-12-11T12:37:48.816Z,89.82
2017-12-11T12:40:16.832Z,90.15
2017-12-11T12:42:44.296Z,91.70
2017-12-11T12:45:11.748Z,91.71
2017-12-11T12:47:39.509Z,90.00
2017-12-11T12:50:06.958Z,89.41
2017-12-11T12:52:34.409Z,89.27
2017-12-11T12:55:02.197Z,91.45
2017-12-11T12:57:29.642Z,91.85
2017-12-11T12:59:57.117Z,93.10
2017-12-11T13:02:24.886Z,93.29
2017-12-11T13:04:52.338Z,93.28
2017-12-11T13:07:19.782Z,91.15
2017-12-11T13:09:47.574Z,90.63
2017-12-11T13:12:15.028Z,91.98
2017-12-11T13:14:42.486Z,93.00
2017-12-11T13:17:11.182Z,93.48
2017-12-11T13:19:38.624Z,93.16
2017-12-11T13:22:06.060Z,93.16
2017-12-11T13:24:33.870Z,93.09
2017-12-11T13:27:01.311Z,93.94
2017-12-11T13:29:28.757Z,94.57
2017-12-11T13:31:56.565Z,94.70
2017-12-11T13:34:24.016Z,93.75
2017-12-11T13:36:51.447Z,93.10
2017-12-11T13:39:19.299Z,92.95
2017-12-11T13:41:46.750Z,93.86
2017-12-11T13:44:14.223Z,93.82
2017-12-11T13:46:41.926Z,92.52
2017-12-11T13:49:09.377Z,92.74
2017-12-11T13:51:36.822Z,91.15
2017-12-11T13:54:04.617Z,90.34
2017-12-11T13:56:32.058Z,92.36
2017-12-11T13:58:59.526Z,91.82
2017-12-11T14:01:27.302Z,93.75
2017-12-11T14:03:54.744Z,91.59
2017-12-11T14:06:22.197Z,91.45
2017-12-11T14:08:50.299Z,94.76
2017-12-11T14:11:17.738Z,92.40
2017-12-11T14:13:45.183Z,89.49
2017-12-11T14:16:13.288Z,85.55
2017-12-11T14:18:41.122Z,86.49
2017-12-11T14:21:08.569Z,92.68
2017-12-11T14:23:36.281Z,93.35
2017-12-11T14:26:03.746Z,93.76
2017-12-11T14:28:31.194Z,93.08
2017-12-11T14:30:58.841Z,90.69
2017-12-11T14:33:26.286Z,89.62
2017-12-11T14:35:53.729Z,89.34
2017-12-11T14:38:21.664Z,89.07
2017-12-11T14:40:49.105Z,86.79
2017-12-11T14:43:16.559Z,86.67
2017-12-11T14:45:44.371Z,86.72
2017-12-11T14:48:11.832Z,87.26
2017-12-11T14:50:39.283Z,88.83
2017-12-11T14:53:07.161Z,90.52
2017-12-11T14:55:34.648Z,90.17
2017-12-11T14:58:02.104Z,90.20
2017-12-11T15:00:30.024Z,91.80
2017-12-11T15:02:57.470Z,91.77
2017-12-11T15:05:24.918Z,91.17
2017-12-11T15:07:52.718Z,90.03
2017-12-11T15:10:20.182Z,91.32
2017-12-11T15:12:47.646Z,90.47
2017-12-11T15:15:15.457Z,92.93
2017-12-11T15:17:42.937Z,93.74
2017-12-11T15:20:10.740Z,91.94
2017-12-11T15:22:38.403Z,91.67
2017-12-11T15:25:05.869Z,94.59
2017-12-11T15:27:33.597Z,94.12
2017-12-11T15:30:01.305Z,93.67
2017-12-11T15:32:28.750Z,92.45
2017-12-11T15:34:56.202Z,90.25
2017-12-11T15:37:24.074Z,93.82
2017-12-11T15:39:52.408Z,93.11
2017-12-11T15:42:19.866Z,91.56
2017-12-11T15:44:47.681Z,90.71
2017-12-11T15:47:15.126Z,90.40
2017-12-11T15:49:42.583Z,90.03
2017-12-11T15:52:10.375Z,88.54
2017-12-11T15:54:37.829Z,89.25
2017-12-11T15:57:05.273Z,90.72
2017-12-11T15:59:33.048Z,89.34
2017-12-11T16:02:00.494Z,88.52
2017-12-11T16:04:27.941Z,88.09
2017-12-11T16:06:55.742Z,88.60
2017-12-11T16:09:23.188Z,88.82
2017-12-11T16:11:50.632Z,89.23
2017-12-11T16:14:18.428Z,87.88
2017-12-11T16:16:45.893Z,86.57
2017-12-11T16:19:13.337Z,87.28
2017-12-11T16:21:41.480Z,85.80
2017-12-11T16:24:08.889Z,85.23
2017-12-11T16:26:36.337Z,83.90
2017-12-11T16:29:04.117Z,84.64
2017-12-11T16:31:31.574Z,84.92
2017-12-11T16:33:59.010Z,84.04
2017-12-11T16:36:26.809Z,79.86
2017-12-11T16:38:54.792Z,81.97
2017-12-11T16:41:22.745Z,82.32
2017-12-11T16:43:51.004Z,82.74
2017-12-11T16:46:19.398Z,81.45
2017-12-11T16:48:47.057Z,81.40
2017-12-11T16:51:15.007Z,79.92
2017-12-11T16:53:42.742Z,82.12
2017-12-11T16:56:10.521Z,82.06
2017-12-11T16:58:38.885Z,82.63
2017-12-11T17:01:06.578Z,82.32
2017-12-11T17:03:34.297Z,83.10
2017-12-11T17:06:02.175Z,81.78
2017-12-11T17:08:29.640Z,81.06
2017-12-11T17:10:57.119Z,80.61
2017-12-11T17:13:24.794Z,79.28
2017-12-11T17:15:52.606Z,79.32
2017-12-11T17:18:20.400Z,80.56
2017-12-11T17:20:48.220Z,79.96
2017-12-11T17:23:18.181Z,79.67
2017-12-11T17:25:45.636Z,82.04
2017-12-11T17:28:13.433Z,80.43
2017-12-11T17:30:40.878Z,80.96
2017-12-11T17:33:08.324Z,79.53
2017-12-11T17:35:36.281Z,81.00
2017-12-11T17:38:03.762Z,80.89
2017-12-11T17:40:31.305Z,81.23
2017-12-11T17:42:59.032Z,81.39
2017-12-11T17:45:26.508Z,80.72
2017-12-11T17:47:54.040Z,81.14
2017-12-11T17:50:21.990Z,81.16
2017-12-11T17:52:49.453Z,83.04
2017-12-11T17:55:17.009Z,83.71
2017-12-11T17:57:44.683Z,83.99
2017-12-11T18:00:12.239Z,81.93
2017-12-11T18:02:39.905Z,82.96
2017-12-11T18:05:07.984Z,81.29
2017-12-11T18:07:35.739Z,80.46
2017-12-11T18:10:03.226Z,80.95
2017-12-11T18:12:31.174Z,81.44
2017-12-11T18:14:58.624Z,81.13
2017-12-11T18:17:26.075Z,80.06
2017-12-11T18:19:53.783Z,80.93
2017-12-11T18:22:21.471Z,81.36
2017-12-11T18:24:50.347Z,81.22
2017-12-11T18:27:18.751Z,82.37
2017-12-11T18:29:46.783Z,82.36
2017-12-11T18:32:14.952Z,80.95
2017-12-11T18:34:44.490Z,81.97
2017-12-11T18:37:12.914Z,80.25
2017-12-11T18:39:40.945Z,82.35
2017-12-11T18:42:09.094Z,81.50
2017-12-11T18:44:37.197Z,80.66
2017-12-11T18:47:05.449Z,81.59
2017-12-11T18:49:33.962Z,80.57
2017-12-11T18:52:02.223Z,80.58
2017-12-11T18:54:30.281Z,79.39
2017-12-11T18:56:58.290Z,80.37
2017-12-11T18:59:25.885Z,81.41
2017-12-11T19:01:53.898Z,80.62
2017-12-11T19:04:22.184Z,81.26
2017-12-11T19:06:50.186Z,81.62
2017-12-11T19:09:18.421Z,80.12
2017-12-11T19:11:46.628Z,80.41
2017-12-11T19:14:14.572Z,80.26
2017-12-11T19:16:42.766Z,81.15
2017-12-11T19:19:10.840Z,79.97
2017-12-11T19:21:38.904Z,78.97
2017-12-11T19:24:06.968Z,80.60
2017-12-11T19:26:35.764Z,79.09
2017-12-11T19:29:03.854Z,78.20
2017-12-11T19:31:31.899Z,77.99
2017-12-11T19:34:00.346Z,78.57
2017-12-11T19:36:28.551Z,78.83
2017-12-11T19:38:56.620Z,79.00
2017-12-11T19:41:24.499Z,77.36
2017-12-11T19:43:52.284Z,77.31
2017-12-11T19:46:19.790Z,78.84
2017-12-11T19:48:48.270Z,79.10
2017-12-11T19:51:15.828Z,79.88
2017-12-11T19:53:43.649Z,79.41
2017-12-11T19:56:11.704Z,79.20
2017-12-11T19:58:39.263Z,77.65
2017-12-11T20:01:06.749Z,79.09
2017-12-11T20:03:34.909Z,80.09
2017-12-11T20:06:02.604Z,79.47
2017-12-11T20:08:30.602Z,80.08
2017-12-11T20:10:58.510Z,77.78
2017-12-11T20:13:26.442Z,78.60
2017-12-11T20:15:54.753Z,79.09
2017-12-11T20:18:22.566Z,78.44
2017-12-11T20:20:50.056Z,77.31
2017-12-11T20:23:18.273Z,79.66
2017-12-11T20:25:46.480Z,78.93
2017-12-11T20:28:15.626Z,78.53
2017-12-11T20:30:43.741Z,79.90
2017-12-11T20:33:11.854Z,79.50
2017-12-11T20:35:39.877Z,78.33
2017-12-11T20:38:07.710Z,79.10
2017-12-11T20:40:36.329Z,79.08
2017-12-11T20:43:04.402Z,79.01
2017-12-11T20:45:32.593Z,79.10
2017-12-11T20:48:00.771Z,79.67
2017-12-11T20:50:28.289Z,78.09
2017-12-11T20:52:56.344Z,79.12
2017-12-11T20:55:24.789Z,79.99
2017-12-11T20:57:52.244Z,79.86
2017-12-11T21:00:20.883Z,79.02
2017-12-11T21:02:48.705Z,79.47
2017-12-11T21:05:16.154Z,80.66
2017-12-11T21:07:43.604Z,79.41
2017-12-11T21:10:11.993Z,79.07
2017-12-11T21:12:39.432Z,79.01
2017-12-11T21:15:06.878Z,77.94
2017-12-11T21:17:34.631Z,79.01
2017-12-11T21:20:02.094Z,82.48
2017-12-11T21:22:29.540Z,81.15
2017-12-11T21:24:57.275Z,81.37
2017-12-11T21:27:24.738Z,80.49
2017-12-11T21:29:52.676Z,81.76
2017-12-11T21:32:20.354Z,81.22
2017-12-11T21:34:47.803Z,81.04
2017-12-11T21:37:15.249Z,81.38
2017-12-11T21:39:42.974Z,80.78
2017-12-11T21:42:10.425Z,81.67
2017-12-11T21:44:39.825Z,83.98
2017-12-11T21:47:07.271Z,84.91
2017-12-11T21:49:34.710Z,85.59
2017-12-11T21:52:02.500Z,86.55
2017-12-11T21:54:29.943Z,82.30
2017-12-11T21:56:57.438Z,82.55
2017-12-11T21:59:25.788Z,81.80
2017-12-11T22:01:53.248Z,83.43
2017-12-11T22:04:20.693Z,82.98
2017-12-11T22:06:48.481Z,83.06
2017-12-11T22:09:16.290Z,84.30
2017-12-11T22:11:43.741Z,84.52
2017-12-11T22:14:11.489Z,85.70
2017-12-11T22:16:38.934Z,87.13
2017-12-11T22:19:06.377Z,87.76
2017-12-11T22:21:34.169Z,88.69
2017-12-11T22:24:01.612Z,88.20
2017-12-11T22:26:29.061Z,89.48
2017-12-11T22:28:56.862Z,89.56
2017-12-11T22:31:24.319Z,90.11
2017-12-11T22:33:51.765Z,90.71
2017-12-11T22:36:19.533Z,90.75
2017-12-11T22:38:46.985Z,90.98
2017-12-11T22:41:14.438Z,91.43
2017-12-11T22:43:42.129Z,91.92
2017-12-11T22:46:10.366Z,92.46
2017-12-11T22:48:37.812Z,93.21
2017-12-11T22:51:05.522Z,93.66
2017-12-11T22:53:32.966Z,94.27
2017-12-11T22:56:00.412Z,94.69
2017-12-11T22:58:28.208Z,95.93
2017-12-11T23:00:55.653Z,95.84
2017-12-11T23:03:23.094Z,96.39
2017-12-11T23:05:50.898Z,96.73
2017-12-11T23:08:18.395Z,97.23
2017-12-11T23:10:45.837Z,97.70
2017-12-11T23:13:13.744Z,98.02
2017-12-11T23:15:41.200Z,98.26
2017-12-11T23:18:08.648Z,98.54
2017-12-11T23:20:36.889Z,98.42
2017-12-11T23:23:04.340Z,98.42
2017-12-11T23:25:31.780Z,99.32
2017-12-11T23:27:59.573Z,99.64
2017-12-11T23:30:27.022Z,100.00
2017-12-11T23:32:54.473Z,99.94
2017-12-11T23:35:22.428Z,100.00
2017-12-11T23:37:49.875Z,100.00
2017-12-11T23:40:17.316Z,100.00
2017-12-11T23:42:45.252Z,100.00
2017-12-11T23:45:12.697Z,100.00
2017-12-11T23:47:40.784Z,100.00
2017-12-11T23:50:08.550Z,100.00
2017-12-11T23:52:35.996Z,100.00
2017-12-11T23:55:03.441Z,100.00
2017-12-11T23:57:31.264Z,100.00
2017-12-11T23:59:58.718Z,100.00
